Time;durP1;ratioP1;P1;durP2;ratioP2;P2;SDS_P1;SDS_P2;PMS_P1;PMS_P2;Temp;Humidity;BMP_temperature;BMP_pressure;BME280_temperature;BME280_humidity;BME280_pressure;Samples;Min_cycle;Max_cycle;Signal;HPM_P1;HPM_P2
2020/12/24 00:00:23;;;;;;;;;26.25;25.25;;;;;20.34;62.33;99114.53;5059492;28;11093;-68
2020/12/24 00:02:52;;;;;;;;;32.75;27.75;;;;;20.36;62.85;99120.34;5055250;28;11090;-69
2020/12/24 00:05:20;;;;;;;;;31.75;28.50;;;;;20.35;61.18;99128.72;5049577;28;12212;-67
2020/12/24 00:07:48;;;;;;;;;27.75;24.00;;;;;20.35;63.17;99131.38;5049730;28;11465;-68
2020/12/24 00:10:17;;;;;;;;;34.25;29.50;;;;;20.41;60.99;99138.97;5051998;28;11213;-67
2020/12/24 00:12:45;;;;;;;;;28.50;28.50;;;;;20.43;62.49;99139.41;5054460;28;11273;-68
2020/12/24 00:15:13;;;;;;;;;28.50;26.75;;;;;20.47;62.37;99143.03;5055422;28;11179;-70
2020/12/24 00:17:41;;;;;;;;;22.00;20.50;;;;;20.53;63.03;99151.69;5055392;28;11381;-70
2020/12/24 00:20:09;;;;;;;;;27.00;22.75;;;;;20.60;62.92;99162.69;5057255;28;11096;-67
2020/12/24 00:22:38;;;;;;;;;19.25;19.25;;;;;20.66;62.46;99165.97;5055711;28;11042;-69
2020/12/24 00:25:07;;;;;;;;;22.00;18.25;;;;;20.69;61.23;99166.09;5055438;28;10788;-69
2020/12/24 00:27:35;;;;;;;;;26.75;23.25;;;;;20.78;61.68;99187.50;5054295;28;10830;-69
2020/12/24 00:30:05;;;;;;;;;19.75;19.75;;;;;20.84;62.15;99178.16;5048962;28;10840;-70
2020/12/24 00:32:34;;;;;;;;;18.50;17.00;;;;;20.87;59.70;99188.22;5047498;28;10871;-69
2020/12/24 00:35:02;;;;;;;;;20.50;18.75;;;;;20.98;59.55;99189.44;5042472;28;10957;-69
2020/12/24 00:37:52;;;;;;;;;18.00;18.00;;;;;21.13;60.57;99198.81;5039223;28;10621;-70
2020/12/24 00:40:21;;;;;;;;;22.00;20.00;;;;;21.18;58.54;99193.25;4985330;28;10705;-69
2020/12/24 00:42:50;;;;;;;;;16.50;16.50;;;;;21.23;60.93;99195.00;4986970;28;10756;-70
2020/12/24 00:45:19;;;;;;;;;22.75;22.50;;;;;21.29;60.59;99213.25;4990258;28;10820;-70
2020/12/24 00:47:48;;;;;;;;;20.50;20.50;;;;;21.34;60.01;99204.22;4991324;28;10737;-69
2020/12/24 00:50:20;;;;;;;;;17.25;17.25;;;;;21.33;57.99;99203.44;4970170;28;10742;-71
2020/12/24 00:52:58;;;;;;;;;24.25;19.00;;;;;21.36;58.10;99200.09;4992329;28;10949;-73
2020/12/24 00:55:28;;;;;;;;;15.25;15.00;;;;;21.43;58.03;99207.63;4964985;28;10780;-72
2020/12/24 00:58:00;;;;;;;;;17.75;14.75;;;;;21.42;57.76;99209.53;4968212;28;10934;-72
2020/12/24 01:00:29;;;;;;;;;23.75;21.75;;;;;21.42;58.25;99206.06;4973544;28;10836;-72
2020/12/24 01:02:58;;;;;;;;;27.50;23.75;;;;;21.38;59.63;99197.09;4975993;28;10750;-71
2020/12/24 01:05:26;;;;;;;;;21.50;19.00;;;;;21.57;57.75;99224.28;4988320;28;10850;-72
2020/12/24 01:07:56;;;;;;;;;25.50;20.00;;;;;21.63;57.59;99220.28;4998568;28;10840;-72
2020/12/24 01:10:30;;;;;;;;;28.50;25.75;;;;;21.66;57.57;99221.53;4995525;28;11100;-71
2020/12/24 01:12:59;;;;;;;;;20.75;19.50;;;;;21.77;57.21;99234.22;4984201;28;11040;-72
2020/12/24 01:15:27;;;;;;;;;24.75;23.00;;;;;21.79;57.38;99232.00;4986154;28;11238;-71
2020/12/24 01:17:58;;;;;;;;;22.25;19.50;;;;;21.80;57.43;99233.56;5017882;28;10840;-71
2020/12/24 01:20:27;;;;;;;;;25.50;20.25;;;;;21.78;57.43;99233.09;5026255;28;10834;-69
2020/12/24 01:22:56;;;;;;;;;23.25;21.50;;;;;21.76;57.67;99224.59;5028346;28;10706;-69
2020/12/24 01:25:25;;;;;;;;;15.50;12.25;;;;;21.89;57.42;99238.09;5034101;28;10729;-68
2020/12/24 01:27:53;;;;;;;;;19.00;16.25;;;;;21.94;57.45;99240.56;5039181;28;10643;-69
2020/12/24 01:30:28;;;;;;;;;19.50;17.50;;;;;21.99;57.60;99248.41;5043526;28;11364;-71
2020/12/24 01:33:06;;;;;;;;;;;;;;;;;;;;;
2020/12/24 01:35:35;;;;;;;;;9.25;6.00;;;;;22.08;57.89;99255.31;5041380;28;10787;-71
2020/12/24 01:38:10;;;;;;;;;15.50;13.50;;;;;22.11;57.83;99262.69;5037631;28;10312;-71
2020/12/24 01:40:39;;;;;;;;;17.25;13.25;;;;;22.17;57.89;99267.84;5040838;28;10386;-71
2020/12/24 01:43:07;;;;;;;;;15.75;12.00;;;;;22.18;57.65;99262.16;5040265;28;11157;-69
2020/12/24 01:45:36;;;;;;;;;14.75;13.00;;;;;22.30;57.65;99274.84;5022474;28;10369;-72
2020/12/24 01:48:08;;;;;;;;;11.25;11.25;;;;;22.36;57.58;99278.91;5041433;28;10568;-71
2020/12/24 01:50:38;;;;;;;;;13.75;11.25;;;;;22.43;58.12;99277.25;5041525;28;10220;-71
2020/12/24 01:53:06;;;;;;;;;10.75;9.50;;;;;22.51;57.79;99280.19;5041420;28;10090;-71
2020/12/24 01:55:35;;;;;;;;;9.00;8.25;;;;;22.58;57.13;99275.03;5041436;28;10112;-71
2020/12/24 01:58:04;;;;;;;;;11.50;9.75;;;;;22.62;57.08;99284.78;5042392;28;9927;-71
2020/12/24 02:00:32;;;;;;;;;8.75;8.75;;;;;22.65;57.36;99280.66;5042415;28;10238;-69
2020/12/24 02:03:01;;;;;;;;;7.50;7.00;;;;;22.64;57.98;99279.09;5044445;28;10016;-69
2020/12/24 02:05:30;;;;;;;;;8.25;6.75;;;;;22.67;57.22;99273.81;5045610;28;9908;-71
2020/12/24 02:07:58;;;;;;;;;7.00;6.00;;;;;22.80;57.13;99295.41;5042811;28;10258;-72
2020/12/24 02:10:26;;;;;;;;;6.00;6.00;;;;;22.81;57.01;99286.22;5042535;28;9862;-71
2020/12/24 02:13:00;;;;;;;;;7.25;6.50;;;;;22.76;56.74;99281.78;5043211;28;9922;-72
2020/12/24 02:15:29;;;;;;;;;10.50;8.75;;;;;22.89;56.91;99293.38;5039456;28;9814;-71
2020/12/24 02:17:58;;;;;;;;;7.25;7.00;;;;;22.93;56.90;99299.66;5043200;28;10083;-69
2020/12/24 02:20:27;;;;;;;;;9.50;6.50;;;;;22.96;57.45;99291.72;5042353;28;9796;-69
2020/12/24 02:22:56;;;;;;;;;6.75;6.00;;;;;23.02;56.69;99300.34;5032009;28;9920;-69
2020/12/24 02:25:24;;;;;;;;;8.25;8.25;;;;;23.07;56.74;99300.13;5054513;28;9839;-70
2020/12/24 02:27:53;;;;;;;;;9.50;7.75;;;;;23.04;56.72;99293.50;5042932;28;10003;-70
2020/12/24 02:30:21;;;;;;;;;7.50;7.50;;;;;23.10;56.60;99300.25;5033722;28;9796;-70
2020/12/24 02:32:53;;;;;;;;;10.00;10.00;;;;;23.08;56.61;99291.72;5038033;28;9698;-69
2020/12/24 02:35:21;;;;;;;;;11.50;9.75;;;;;23.21;56.49;99297.13;5040078;28;9681;-70
2020/12/24 02:37:50;;;;;;;;;9.00;7.00;;;;;23.23;56.36;99290.28;5041844;28;9878;-69
2020/12/24 02:40:19;;;;;;;;;10.00;7.50;;;;;23.28;56.47;99295.44;5041471;28;9758;-72
2020/12/24 02:42:47;;;;;;;;;6.75;5.00;;;;;23.30;56.46;99289.72;5043274;28;9793;-72
2020/12/24 02:45:16;;;;;;;;;9.75;7.00;;;;;23.33;56.48;99287.13;5042012;28;9852;-70
2020/12/24 02:47:48;;;;;;;;;9.75;9.75;;;;;23.28;56.65;99267.72;5014343;28;9835;-71
2020/12/24 02:50:53;;;;;;;;;12.25;10.00;;;;;23.41;56.38;99283.50;5031381;28;9782;-71
2020/12/24 02:53:22;;;;;;;;;9.25;8.50;;;;;23.44;56.35;99273.97;5032088;28;9707;-71
2020/12/24 02:55:50;;;;;;;;;9.00;8.75;;;;;23.51;56.41;99278.78;5032707;28;10406;-70
2020/12/24 02:58:19;;;;;;;;;9.75;7.25;;;;;23.51;56.11;99274.19;5034219;28;9839;-69
2020/12/24 03:00:47;;;;;;;;;11.00;10.00;;;;;23.57;56.38;99280.94;5036365;28;9700;-69
2020/12/24 03:03:16;;;;;;;;;7.25;7.25;;;;;23.62;56.17;99275.31;5039264;28;9688;-69
2020/12/24 03:05:44;;;;;;;;;10.00;8.75;;;;;23.65;56.50;99277.31;5039922;28;9878;-69
2020/12/24 03:08:13;;;;;;;;;8.75;7.75;;;;;23.61;56.24;99259.50;5043637;28;9520;-69
2020/12/24 03:10:42;;;;;;;;;12.50;9.50;;;;;23.76;56.07;99272.25;5041913;28;9637;-69
2020/12/24 03:13:10;;;;;;;;;11.00;11.00;;;;;23.75;55.87;99255.28;5048683;28;9729;-73
2020/12/24 03:15:39;;;;;;;;;13.75;10.50;;;;;23.85;55.93;99262.13;5042313;28;9705;-70
2020/12/24 03:18:07;;;;;;;;;11.25;9.75;;;;;23.84;56.01;99249.78;5051314;28;9724;-70
2020/12/24 03:20:35;;;;;;;;;13.25;10.00;;;;;23.90;55.82;99259.19;5033606;28;9592;-69
2020/12/24 03:23:04;;;;;;;;;15.50;13.25;;;;;23.96;55.89;99251.63;5048162;28;10537;-69
2020/12/24 03:25:33;;;;;;;;;11.50;10.00;;;;;23.91;55.81;99233.81;5039683;28;9752;-69
2020/12/24 03:28:01;;;;;;;;;9.00;8.50;;;;;24.05;55.91;99244.97;5040922;28;9688;-69
2020/12/24 03:30:30;;;;;;;;;13.50;10.00;;;;;24.13;56.83;99243.25;5045501;28;9453;-69
2020/12/24 03:32:58;;;;;;;;;14.50;10.50;;;;;24.24;55.72;99246.25;5038988;28;9536;-69
2020/12/24 03:35:27;;;;;;;;;7.00;6.00;;;;;24.31;55.49;99243.75;5044385;28;9521;-69
2020/12/24 03:37:55;;;;;;;;;8.50;8.50;;;;;24.31;55.44;99238.38;5041085;28;9439;-69
2020/12/24 03:40:23;;;;;;;;;11.00;9.00;;;;;24.37;55.47;99237.78;5041724;28;9401;-70
2020/12/24 03:42:52;;;;;;;;;10.00;8.67;;;;;24.39;55.27;99235.50;5041439;28;9397;-69
2020/12/24 03:45:20;;;;;;;;;7.67;7.67;;;;;24.36;55.36;99228.13;5037410;28;9556;-69
2020/12/24 03:47:49;;;;;;;;;9.33;6.67;;;;;24.38;55.29;99219.69;5037813;28;10065;-71
2020/12/24 03:50:33;;;;;;;;;7.33;6.00;;;;;24.44;55.34;99212.91;5038578;28;9589;-70
2020/12/24 03:53:01;;;;;;;;;5.33;5.33;;;;;24.58;55.11;99220.56;5023886;28;9263;-69
2020/12/24 03:55:30;;;;;;;;;6.33;5.00;;;;;24.68;54.79;99226.22;5039453;28;10045;-69
2020/12/24 03:57:58;;;;;;;;;5.33;5.00;;;;;24.74;55.10;99224.00;5039384;28;9917;-69
2020/12/24 04:00:27;;;;;;;;;7.00;7.00;;;;;24.77;54.88;99217.13;5041271;28;9547;-73
2020/12/24 04:02:55;;;;;;;;;4.67;4.67;;;;;24.76;54.68;99205.56;5040004;28;9258;-71
2020/12/24 04:05:23;;;;;;;;;7.00;4.00;;;;;24.72;54.50;99202.78;5039727;28;9196;-71
2020/12/24 04:07:52;;;;;;;;;5.33;4.00;;;;;24.82;54.61;99201.47;5042023;28;9142;-72
2020/12/24 04:10:20;;;;;;;;;7.00;5.33;;;;;24.88;54.46;99202.75;5044203;28;9076;-71
2020/12/24 04:12:49;;;;;;;;;3.00;3.00;;;;;24.90;54.62;99197.03;5024853;28;9212;-71
2020/12/24 04:15:17;;;;;;;;;6.67;4.67;;;;;24.95;54.07;99197.53;5043485;28;9074;-72
2020/12/24 04:17:45;;;;;;;;;4.00;4.00;;;;;24.99;54.55;99194.94;5044455;28;9017;-70
2020/12/24 04:20:14;;;;;;;;;4.00;4.00;;;;;24.99;54.48;99182.22;5040407;28;9028;-71
2020/12/24 04:22:43;;;;;;;;;5.00;5.00;;;;;25.01;54.32;99174.56;5044101;28;8939;-70
2020/12/24 04:25:11;;;;;;;;;4.00;3.33;;;;;25.07;54.35;99180.47;5044777;28;8987;-71
2020/12/24 04:27:40;;;;;;;;;6.00;4.00;;;;;25.09;54.40;99164.72;5049917;28;9053;-71
2020/12/24 04:30:09;;;;;;;;;8.33;5.67;;;;;25.17;53.89;99165.66;5043352;28;8938;-71
2020/12/24 04:32:37;;;;;;;;;6.00;6.00;;;;;25.27;54.04;99163.19;5039105;28;9099;-71
2020/12/24 04:35:06;;;;;;;;;5.33;5.33;;;;;25.32;53.59;99151.31;5014941;28;8948;-71
2020/12/24 04:37:34;;;;;;;;;6.00;4.67;;;;;25.31;53.44;99126.22;5033740;28;9103;-69
2020/12/24 04:40:04;;;;;;;;;3.67;3.67;;;;;25.32;53.96;99124.31;5035348;28;9149;-71
2020/12/24 04:42:34;;;;;;;;;8.33;5.67;;;;;25.39;53.93;99124.44;5041802;28;9017;-71
2020/12/24 04:45:07;;;;;;;;;7.33;7.33;;;;;25.44;53.98;99123.38;5042644;28;8911;-71
2020/12/24 04:47:43;;;;;;;;;5.33;5.33;;;;;25.50;53.45;99119.25;5024353;28;8987;-70
2020/12/24 04:50:13;;;;;;;;;7.67;6.00;;;;;25.42;53.62;99095.94;5046946;28;8923;-70
2020/12/24 04:52:45;;;;;;;;;7.25;5.25;;;;;25.60;53.54;99100.56;5026117;28;8929;-70
2020/12/24 04:55:13;;;;;;;;;5.00;5.00;;;;;25.66;52.97;99099.16;5038757;28;8843;-70
2020/12/24 04:57:43;;;;;;;;;3.00;3.00;;;;;25.75;53.50;99093.53;5038527;28;9667;-71
2020/12/24 05:00:12;;;;;;;;;1.75;0.00;;;;;25.77;53.14;99068.84;5019765;28;8824;-72
2020/12/24 05:02:41;;;;;;;;;13.00;13.00;;;;;25.85;53.03;99075.94;5042726;28;8835;-70
2020/12/24 05:05:09;;;;;;;;;7.00;6.25;;;;;25.89;52.78;99071.38;5043276;28;9215;-71
2020/12/24 05:07:41;;;;;;;;;3.25;3.25;;;;;25.91;53.10;99050.16;5043271;28;8902;-73
2020/12/24 05:10:16;;;;;;;;;4.25;4.25;;;;;25.99;52.92;99052.63;5044412;28;8959;-69
2020/12/24 05:12:44;;;;;;;;;8.50;5.25;;;;;26.01;52.51;99036.81;5042305;28;8831;-70
2020/12/24 05:15:31;;;;;;;;;3.75;3.75;;;;;26.12;52.14;99036.19;5040605;28;8958;-70
2020/12/24 05:18:12;;;;;;;;;7.00;5.00;;;;;26.20;52.01;99035.16;5039460;28;8828;-70
2020/12/24 05:20:42;;;;;;;;;10.00;7.67;;;;;26.21;52.45;99017.78;5024013;28;8814;-70
2020/12/24 05:23:14;;;;;;;;;13.33;10.00;;;;;26.24;52.65;99017.84;5044242;28;8983;-70
2020/12/24 05:25:44;;;;;;;;;6.75;6.75;;;;;26.27;52.23;99017.13;5045325;28;9166;-70
2020/12/24 05:28:23;;;;;;;;;12.00;10.00;;;;;26.32;51.45;99014.13;5037695;28;8839;-70
2020/12/24 05:30:52;;;;;;;;;14.67;11.00;;;;;26.41;52.08;99003.03;5039704;28;8945;-70
2020/12/24 05:33:33;;;;;;;;;9.33;9.33;;;;;26.51;51.77;98997.00;5044337;28;9644;-70
2020/12/24 05:36:15;;;;;;;;;13.00;10.33;;;;;26.56;51.22;98993.19;5040465;28;9746;-70
2020/12/24 05:38:44;;;;;;;;;9.50;8.50;;;;;26.58;51.47;98978.16;5039815;28;8929;-70
2020/12/24 05:41:28;;;;;;;;;7.00;7.00;;;;;26.65;51.72;98977.47;5039400;28;8952;-70
2020/12/24 05:44:14;;;;;;;;;7.75;6.75;;;;;26.66;51.13;98962.78;5050076;28;9686;-69
2020/12/24 05:46:45;;;;;;;;;6.50;6.50;;;;;26.72;51.47;98964.03;5049168;28;8830;-70
2020/12/24 05:49:20;;;;;;;;;7.50;7.00;;;;;26.78;51.55;98969.88;5049621;28;8822;-69
2020/12/24 05:52:09;;;;;;;;;7.50;6.25;;;;;26.82;51.52;98966.06;5044280;28;8883;-70
2020/12/24 05:54:37;;;;;;;;;4.50;4.50;;;;;26.81;51.45;98942.88;5041253;28;8865;-70
2020/12/24 05:57:06;;;;;;;;;6.75;6.00;;;;;26.90;51.17;98956.13;5047051;28;8863;-71
2020/12/24 05:59:35;;;;;;;;;6.50;5.00;;;;;26.93;51.12;98949.97;5034916;28;8841;-72
2020/12/24 06:02:13;;;;;;;;;9.75;9.50;;;;;26.90;51.05;98950.69;5039744;28;8864;-72
2020/12/24 06:04:44;;;;;;;;;9.75;9.75;;;;;26.98;51.03;98951.59;5046815;28;8914;-71
2020/12/24 06:07:14;;;;;;;;;12.00;9.00;;;;;26.98;50.57;98933.41;5043596;28;9063;-70
2020/12/24 06:09:44;;;;;;;;;28.75;26.25;;;;;26.99;50.11;98932.25;5043134;28;8856;-70
2020/12/24 06:12:22;;;;;;;;;12.25;11.25;;;;;27.05;50.59;98916.47;5032175;28;9727;-70
2020/12/24 06:14:58;;;;;;;;;10.00;8.00;;;;;27.13;50.39;98915.38;5036976;28;9556;-69
2020/12/24 06:17:30;;;;;;;;;6.25;4.25;;;;;27.19;50.36;98914.66;5049357;28;8841;-72
2020/12/24 06:19:58;;;;;;;;;8.00;6.25;;;;;27.22;50.20;98919.34;5044511;28;8938;-69
2020/12/24 06:22:28;;;;;;;;;8.75;5.75;;;;;27.23;50.06;98907.34;5038443;28;8841;-71
2020/12/24 06:24:58;;;;;;;;;5.25;5.00;;;;;27.29;49.66;98905.88;5041246;28;8903;-71
2020/12/24 06:27:37;;;;;;;;;10.00;8.75;;;;;27.36;49.83;98901.63;5040858;28;8955;-70
2020/12/24 06:30:18;;;;;;;;;14.25;9.25;;;;;27.42;49.73;98894.72;5034266;28;8858;-69
2020/12/24 06:32:50;;;;;;;;;6.75;6.75;;;;;27.44;49.33;98893.19;5035523;28;8849;-70
2020/12/24 06:35:41;;;;;;;;;11.00;9.00;;;;;27.44;49.47;98892.41;5038314;28;8840;-70
2020/12/24 06:38:13;;;;;;;;;5.75;5.75;;;;;27.37;49.41;98881.50;5043399;28;9578;-69
2020/12/24 06:40:42;;;;;;;;;0.00;0.00;;;;;27.46;49.32;98881.97;5037955;28;8840;-68
2020/12/24 06:43:10;;;;;;;;;7.50;7.50;;;;;27.49;48.93;98884.72;5034741;28;8841;-70
2020/12/24 06:45:40;;;;;;;;;10.50;9.25;;;;;27.51;49.31;98874.28;5045095;28;8852;-69
2020/12/24 06:48:15;;;;;;;;;9.75;9.75;;;;;27.55;49.01;98875.06;5040947;28;8840;-72
2020/12/24 06:50:46;;;;;;;;;12.75;10.25;;;;;27.60;49.63;98876.69;5038392;28;8840;-71
2020/12/24 06:53:36;;;;;;;;;12.50;12.25;;;;;27.65;49.46;98876.34;5038424;28;8837;-70
2020/12/24 06:56:14;;;;;;;;;10.25;9.00;;;;;27.73;49.63;98869.03;5041114;28;8821;-70
2020/12/24 06:58:58;;;;;;;;;7.50;7.50;;;;;27.80;47.93;98869.84;5040604;28;8872;-71
2020/12/24 07:01:37;;;;;;;;;7.75;4.50;;;;;27.96;49.26;98866.06;5038555;28;8882;-71
2020/12/24 07:04:08;;;;;;;;;7.00;7.00;;;;;27.94;48.96;98844.75;5047832;28;8896;-71
2020/12/24 07:06:49;;;;;;;;;5.25;5.25;;;;;28.03;47.52;98844.41;5050773;28;8877;-70
2020/12/24 07:09:20;;;;;;;;;7.00;7.00;;;;;28.10;48.34;98853.34;5051050;28;8889;-71
2020/12/24 07:11:54;;;;;;;;;8.25;6.25;;;;;28.16;47.55;98848.34;5020831;28;8860;-73
2020/12/24 07:14:30;;;;;;;;;11.00;10.50;;;;;28.26;48.31;98850.34;5030840;28;8894;-70
2020/12/24 07:17:11;;;;;;;;;11.25;11.25;;;;;28.28;48.16;98839.13;5029403;28;8945;-70
2020/12/24 07:19:42;;;;;;;;;8.50;8.25;;;;;28.31;48.53;98836.44;5030520;28;8844;-70
2020/12/24 07:22:15;;;;;;;;;4.00;4.00;;;;;28.44;48.11;98845.00;5025598;28;8829;-70
2020/12/24 07:25:00;;;;;;;;;3.75;3.75;;;;;28.48;46.42;98832.22;5051850;28;8868;-70
2020/12/24 07:27:50;;;;;;;;;5.25;3.50;;;;;28.57;45.16;98838.06;5051661;28;8769;-71
2020/12/24 07:30:21;;;;;;;;;3.75;3.75;;;;;28.72;45.60;98820.59;5034548;28;8967;-69
2020/12/24 07:32:54;;;;;;;;;4.00;0.75;;;;;28.86;47.73;98817.94;5051397;28;8842;-69
2020/12/24 07:35:24;;;;;;;;;3.00;3.00;;;;;28.93;47.43;98814.44;5033366;28;8841;-70
2020/12/24 07:37:54;;;;;;;;;5.25;4.25;;;;;28.95;47.50;98812.13;5049516;28;8860;-71
2020/12/24 07:40:31;;;;;;;;;6.00;6.00;;;;;28.95;47.29;98817.56;5051318;28;8848;-72
2020/12/24 07:43:10;;;;;;;;;5.00;3.50;;;;;28.92;46.74;98812.91;5055424;28;8837;-71
2020/12/24 07:45:39;;;;;;;;;3.50;3.50;;;;;28.91;47.19;98805.91;5055015;28;8951;-71
2020/12/24 07:48:19;;;;;;;;;6.25;4.50;;;;;28.88;47.02;98803.97;5048712;28;8866;-71
2020/12/24 07:50:52;;;;;;;;;5.25;5.25;;;;;28.81;45.95;98796.56;5042914;28;8886;-71
2020/12/24 07:53:23;;;;;;;;;4.75;3.00;;;;;28.87;45.24;98802.44;5025596;28;8967;-70
2020/12/24 07:55:52;;;;;;;;;4.25;4.25;;;;;28.94;46.67;98797.00;5045246;28;8843;-70
2020/12/24 07:58:20;;;;;;;;;2.25;2.25;;;;;28.99;47.19;98788.47;5043233;28;8922;-71
2020/12/24 08:00:55;;;;;;;;;5.00;5.00;;;;;29.04;46.87;98803.59;5042682;28;8844;-71
2020/12/24 08:03:23;;;;;;;;;6.50;5.00;;;;;29.03;46.31;98786.53;5042464;28;9702;-70
2020/12/24 08:06:02;;;;;;;;;7.25;5.75;;;;;29.00;46.88;98776.44;5044192;28;8895;-71
2020/12/24 08:08:38;;;;;;;;;6.25;5.75;;;;;29.05;46.55;98778.75;5043028;28;8864;-71
2020/12/24 08:11:09;;;;;;;;;5.50;5.50;;;;;29.01;46.63;98791.56;5034309;28;8902;-71
2020/12/24 08:13:37;;;;;;;;;7.25;5.00;;;;;28.93;46.11;98781.09;5043690;28;9113;-71
2020/12/24 08:16:13;;;;;;;;;5.50;4.50;;;;;28.98;46.59;98781.47;5027110;28;8871;-72
2020/12/24 08:18:47;;;;;;;;;6.00;3.75;;;;;29.00;46.59;98781.88;5044122;28;8811;-70
2020/12/24 08:21:31;;;;;;;;;6.25;3.75;;;;;29.00;46.34;98787.28;5027124;28;8851;-72
2020/12/24 08:24:10;;;;;;;;;4.50;3.00;;;;;28.97;45.91;98774.50;5044666;28;8855;-71
2020/12/24 08:26:40;;;;;;;;;6.75;6.75;;;;;28.95;46.25;98781.47;5047267;28;8838;-70
2020/12/24 08:29:08;;;;;;;;;5.25;5.25;;;;;28.98;46.09;98778.00;5053348;28;8857;-69
2020/12/24 08:31:40;;;;;;;;;5.75;5.25;;;;;28.96;46.01;98777.59;5054012;28;8884;-71
2020/12/24 08:34:10;;;;;;;;;5.25;5.25;;;;;28.96;46.11;98775.66;5036374;28;8837;-72
2020/12/24 08:36:46;;;;;;;;;6.00;6.00;;;;;28.98;46.01;98783.41;5054205;28;8871;-69
2020/12/24 08:39:18;;;;;;;;;8.50;7.25;;;;;28.87;44.76;98773.34;5054185;28;8826;-73
2020/12/24 08:41:55;;;;;;;;;4.00;4.00;;;;;28.93;44.88;98775.66;5052732;28;8833;-72
2020/12/24 08:44:24;;;;;;;;;6.25;3.00;;;;;29.03;45.98;98778.38;5043850;28;8844;-71
2020/12/24 08:47:10;;;;;;;;;5.25;5.25;;;;;28.96;45.40;98764.78;5043098;28;8926;-71
2020/12/24 08:49:46;;;;;;;;;7.75;7.75;;;;;28.98;45.99;98753.53;5043747;28;8859;-67
2020/12/24 08:52:20;;;;;;;;;6.00;6.00;;;;;29.11;45.99;98782.63;5043269;28;8835;-69
2020/12/24 08:55:00;;;;;;;;;12.00;7.25;;;;;29.10;44.91;98785.75;5039893;28;8847;-69
2020/12/24 08:57:29;;;;;;;;;6.00;6.00;;;;;29.09;45.68;98762.47;5046550;28;8992;-69
2020/12/24 09:00:00;;;;;;;;;13.50;8.25;;;;;29.19;45.61;98769.81;5042020;28;8971;-70
2020/12/24 09:02:31;;;;;;;;;6.75;6.00;;;;;29.21;45.32;98765.56;5029354;28;8915;-69
2020/12/24 09:05:07;;;;;;;;;8.00;8.00;;;;;29.26;45.34;98769.03;5045437;28;8856;-68
2020/12/24 09:07:48;;;;;;;;;7.00;7.00;;;;;29.28;44.35;98770.19;5026737;28;8837;-70
2020/12/24 09:10:25;;;;;;;;;10.00;7.25;;;;;29.41;45.01;98795.03;5042996;28;8832;-71
2020/12/24 09:13:02;;;;;;;;;7.25;7.25;;;;;29.44;45.50;98764.38;5028144;28;8950;-72
2020/12/24 09:15:32;;;;;;;;;8.00;8.00;;;;;29.47;45.48;98771.75;5035627;28;8827;-72
2020/12/24 09:18:10;;;;;;;;;9.50;7.25;;;;;29.37;45.68;98770.56;5040272;28;8881;-75
2020/12/24 09:20:45;;;;;;;;;6.25;4.75;;;;;29.30;44.46;98776.03;5028853;28;9605;-71
2020/12/24 09:23:16;;;;;;;;;11.25;9.00;;;;;29.32;45.14;98789.22;5045306;28;8864;-71
2020/12/24 09:25:46;;;;;;;;;14.00;14.00;;;;;29.34;45.29;98776.00;5050897;28;8888;-74
2020/12/24 09:28:26;;;;;;;;;9.00;7.50;;;;;29.36;45.37;98781.84;5035203;28;8859;-73
2020/12/24 09:30:59;;;;;;;;;18.50;15.75;;;;;29.33;44.87;98780.69;5031605;28;8869;-72
2020/12/24 09:33:28;;;;;;;;;13.50;10.75;;;;;29.42;45.13;98781.06;5031975;28;8962;-72
2020/12/24 09:35:56;;;;;;;;;14.25;11.25;;;;;29.36;45.26;98782.59;5031601;28;8862;-71
2020/12/24 09:38:24;;;;;;;;;12.25;8.50;;;;;29.28;45.83;98781.06;5032296;28;8855;-71
2020/12/24 09:40:53;;;;;;;;;10.75;9.00;;;;;29.07;45.82;98768.28;5032179;28;9040;-73
2020/12/24 09:43:21;;;;;;;;;11.50;6.50;;;;;29.04;44.44;98787.28;5030103;28;8968;-72
2020/12/24 09:45:49;;;;;;;;;12.00;7.00;;;;;29.10;45.84;98800.09;5033112;28;9018;-70
2020/12/24 09:48:18;;;;;;;;;8.00;8.00;;;;;29.11;45.90;98801.66;5040858;28;8923;-69
2020/12/24 09:50:46;;;;;;;;;10.75;9.25;;;;;29.08;46.15;98796.22;5041357;28;8821;-70
2020/12/24 09:53:14;;;;;;;;;9.75;8.75;;;;;29.03;46.09;98800.09;5041387;28;8857;-70
2020/12/24 09:55:43;;;;;;;;;13.50;10.50;;;;;28.95;45.83;98803.97;5031999;28;8888;-68
2020/12/24 09:58:11;;;;;;;;;10.25;8.75;;;;;28.88;45.85;98802.03;5040423;28;8965;-70
2020/12/24 10:00:39;;;;;;;;;8.00;8.00;;;;;28.82;46.03;98803.59;5031622;28;8925;-69
2020/12/24 10:03:07;;;;;;;;;15.00;7.25;;;;;28.77;45.86;98805.88;5032078;28;8852;-70
2020/12/24 10:05:36;;;;;;;;;6.25;6.25;;;;;28.74;45.90;98812.84;5032377;28;8840;-69
2020/12/24 10:08:04;;;;;;;;;9.25;7.25;;;;;28.71;45.77;98818.28;5032184;28;8848;-70
2020/12/24 10:10:32;;;;;;;;;8.50;6.25;;;;;28.69;46.04;98807.03;5032421;28;8855;-71
2020/12/24 10:13:01;;;;;;;;;7.75;7.75;;;;;28.70;46.05;98805.88;5032802;28;8848;-67
2020/12/24 10:15:29;;;;;;;;;13.25;8.50;;;;;28.76;46.30;98817.91;5031163;28;8999;-69
2020/12/24 10:17:57;;;;;;;;;8.25;8.25;;;;;28.75;46.24;98821.78;5032813;28;8943;-70
2020/12/24 10:20:26;;;;;;;;;7.75;7.75;;;;;28.70;45.98;98811.28;5032660;28;8840;-74
2020/12/24 10:22:55;;;;;;;;;8.25;8.25;;;;;28.65;46.26;98817.09;5032702;28;8867;-74
2020/12/24 10:25:23;;;;;;;;;7.75;6.50;;;;;28.53;46.04;98808.19;5032616;28;8844;-74
2020/12/24 10:27:52;;;;;;;;;4.50;3.50;;;;;28.58;46.27;98837.66;5031749;28;8933;-74
2020/12/24 10:30:20;;;;;;;;;7.00;5.50;;;;;28.46;46.33;98816.31;5032281;28;8851;-73
2020/12/24 10:32:49;;;;;;;;;9.25;8.75;;;;;28.44;46.37;98823.28;5032308;28;8878;-73
2020/12/24 10:35:17;;;;;;;;;10.75;7.50;;;;;28.42;46.40;98836.47;5032437;28;8855;-73
2020/12/24 10:37:45;;;;;;;;;9.00;8.00;;;;;28.38;46.60;98839.16;5032266;28;8871;-74
2020/12/24 10:40:14;;;;;;;;;9.00;8.75;;;;;28.31;46.72;98835.66;5032408;28;8966;-74
2020/12/24 10:42:46;;;;;;;;;9.50;7.75;;;;;28.27;46.59;98843.78;5032175;28;8856;-73
2020/12/24 10:45:15;;;;;;;;;11.50;9.00;;;;;28.29;46.89;98851.53;5031928;28;8859;-73
2020/12/24 10:47:43;;;;;;;;;9.25;8.75;;;;;28.25;46.83;98851.53;5032719;28;8836;-75
2020/12/24 10:50:12;;;;;;;;;13.25;10.25;;;;;28.24;47.10;98856.16;5014235;28;8844;-73
2020/12/24 10:52:43;;;;;;;;;10.75;9.50;;;;;28.18;46.98;98854.94;5030237;28;8824;-72
2020/12/24 10:55:14;;;;;;;;;5.75;4.75;;;;;28.15;47.05;98854.94;5031972;28;8844;-72
2020/12/24 10:57:42;;;;;;;;;11.50;8.75;;;;;28.11;47.06;98854.91;5030709;28;9587;-73
2020/12/24 11:00:10;;;;;;;;;7.50;7.50;;;;;28.04;47.14;98856.81;5031805;28;8835;-72
2020/12/24 11:02:39;;;;;;;;;10.25;8.50;;;;;27.96;47.25;98849.81;5032040;28;8867;-73
2020/12/24 11:05:07;;;;;;;;;9.75;8.25;;;;;27.98;47.22;98859.09;5031360;28;8913;-73
2020/12/24 11:07:35;;;;;;;;;10.25;8.50;;;;;27.85;47.34;98842.38;5014086;28;8853;-73
2020/12/24 11:10:05;;;;;;;;;9.50;9.50;;;;;27.83;47.51;98863.69;5031472;28;8852;-73
2020/12/24 11:12:33;;;;;;;;;9.25;8.75;;;;;27.75;47.48;98867.50;5031726;28;8866;-73
2020/12/24 11:15:02;;;;;;;;;11.50;11.00;;;;;27.64;47.52;98860.47;5031650;28;8966;-72
2020/12/24 11:17:31;;;;;;;;;11.00;10.50;;;;;27.59;47.91;98865.06;5031611;28;8847;-72
2020/12/24 11:19:59;;;;;;;;;10.50;9.00;;;;;27.51;47.78;98876.97;5031281;28;8858;-72
2020/12/24 11:22:28;;;;;;;;;12.25;12.25;;;;;27.42;48.04;98879.25;5030925;28;9607;-73
2020/12/24 11:24:57;;;;;;;;;13.00;10.50;;;;;27.32;48.04;98879.16;5031649;28;9575;-71
2020/12/24 11:27:26;;;;;;;;;13.50;10.75;;;;;27.24;48.24;98881.84;5014316;28;8836;-71
2020/12/24 11:29:54;;;;;;;;;13.50;13.50;;;;;27.17;48.25;98883.69;5031441;28;8832;-73
2020/12/24 11:32:23;;;;;;;;;15.00;13.50;;;;;27.07;48.63;98882.44;5029805;28;8855;-72
2020/12/24 11:34:51;;;;;;;;;13.75;11.50;;;;;27.03;48.55;98887.06;5030010;28;8862;-74
2020/12/24 11:37:19;;;;;;;;;18.50;18.50;;;;;26.94;48.43;98890.03;5031398;28;8843;-72
2020/12/24 11:39:48;;;;;;;;;0.75;0.75;;;;;26.90;48.51;98885.72;5031339;28;8847;-72
2020/12/24 11:42:16;;;;;;;;;17.00;17.00;;;;;26.88;48.79;98898.84;5031277;28;8851;-75
2020/12/24 11:44:45;;;;;;;;;17.25;16.00;;;;;26.84;48.66;98906.94;5031169;28;8850;-72
2020/12/24 11:47:13;;;;;;;;;13.33;13.33;;;;;26.78;48.84;98897.59;5031681;28;8881;-73
2020/12/24 11:49:42;;;;;;;;;11.75;11.00;;;;;26.79;48.74;98907.28;5031327;28;8920;-72
2020/12/24 11:52:10;;;;;;;;;16.25;13.50;;;;;26.76;48.99;98909.94;5030928;28;8832;-72